sensor_id;sensor_type;location;lat;lon;timestamp;P1;durP1;ratioP1;P2;durP2;ratioP2
23304;SDS011;11821;51.456;8.844;2023-04-25T00:00:58;8.88;;;6.20;;
23304;SDS011;11821;51.456;8.844;2023-04-25T00:03:24;5.93;;;4.45;;
23304;SDS011;11821;51.456;8.844;2023-04-25T00:05:51;11.52;;;5.97;;
23304;SDS011;11821;51.456;8.844;2023-04-25T00:08:17;9.00;;;6.03;;
23304;SDS011;11821;51.456;8.844;2023-04-25T00:10:44;8.85;;;6.57;;
23304;SDS011;11821;51.456;8.844;2023-04-25T00:13:11;12.60;;;6.68;;
23304;SDS011;11821;51.456;8.844;2023-04-25T00:15:37;9.45;;;6.60;;
23304;SDS011;11821;51.456;8.844;2023-04-25T00:18:04;11.55;;;6.72;;
23304;SDS011;11821;51.456;8.844;2023-04-25T00:20:31;11.00;;;6.25;;
23304;SDS011;11821;51.456;8.844;2023-04-25T00:22:58;11.68;;;6.80;;
23304;SDS011;11821;51.456;8.844;2023-04-25T00:25:24;12.13;;;7.32;;
23304;SDS011;11821;51.456;8.844;2023-04-25T00:27:51;10.65;;;7.15;;
23304;SDS011;11821;51.456;8.844;2023-04-25T00:30:18;8.18;;;5.55;;
23304;SDS011;11821;51.456;8.844;2023-04-25T00:32:45;13.77;;;7.05;;
23304;SDS011;11821;51.456;8.844;2023-04-25T00:35:13;8.20;;;6.00;;
23304;SDS011;11821;51.456;8.844;2023-04-25T00:37:39;12.90;;;6.72;;
23304;SDS011;11821;51.456;8.844;2023-04-25T00:40:06;12.20;;;7.10;;
23304;SDS011;11821;51.456;8.844;2023-04-25T00:42:34;15.25;;;7.97;;
23304;SDS011;11821;51.456;8.844;2023-04-25T00:45:02;11.15;;;6.55;;
23304;SDS011;11821;51.456;8.844;2023-04-25T00:47:30;10.90;;;6.57;;
23304;SDS011;11821;51.456;8.844;2023-04-25T00:49:58;10.38;;;6.85;;
23304;SDS011;11821;51.456;8.844;2023-04-25T00:52:24;12.45;;;7.05;;
23304;SDS011;11821;51.456;8.844;2023-04-25T00:54:51;13.93;;;7.93;;
23304;SDS011;11821;51.456;8.844;2023-04-25T00:57:18;15.55;;;7.70;;
23304;SDS011;11821;51.456;8.844;2023-04-25T00:59:45;12.70;;;7.75;;
23304;SDS011;11821;51.456;8.844;2023-04-25T01:02:12;16.73;;;7.20;;
23304;SDS011;11821;51.456;8.844;2023-04-25T01:04:39;14.25;;;7.00;;
23304;SDS011;11821;51.456;8.844;2023-04-25T01:07:05;12.27;;;6.97;;
23304;SDS011;11821;51.456;8.844;2023-04-25T01:09:32;15.10;;;6.75;;
23304;SDS011;11821;51.456;8.844;2023-04-25T01:11:59;15.50;;;7.40;;
23304;SDS011;11821;51.456;8.844;2023-04-25T01:14:26;13.00;;;6.55;;
23304;SDS011;11821;51.456;8.844;2023-04-25T01:16:53;11.52;;;7.00;;
23304;SDS011;11821;51.456;8.844;2023-04-25T01:19:20;10.65;;;6.40;;
23304;SDS011;11821;51.456;8.844;2023-04-25T01:21:46;11.13;;;5.55;;
23304;SDS011;11821;51.456;8.844;2023-04-25T01:24:14;10.15;;;5.93;;
23304;SDS011;11821;51.456;8.844;2023-04-25T01:26:41;10.05;;;5.75;;
23304;SDS011;11821;51.456;8.844;2023-04-25T01:29:16;11.65;;;6.05;;
23304;SDS011;11821;51.456;8.844;2023-04-25T01:31:44;9.57;;;5.07;;
23304;SDS011;11821;51.456;8.844;2023-04-25T01:34:11;8.70;;;5.05;;
23304;SDS011;11821;51.456;8.844;2023-04-25T01:36:38;10.15;;;5.25;;
23304;SDS011;11821;51.456;8.844;2023-04-25T01:39:05;10.90;;;5.72;;
23304;SDS011;11821;51.456;8.844;2023-04-25T01:41:32;17.17;;;5.22;;
23304;SDS011;11821;51.456;8.844;2023-04-25T01:44:00;12.63;;;5.35;;
23304;SDS011;11821;51.456;8.844;2023-04-25T01:46:28;14.07;;;6.30;;
23304;SDS011;11821;51.456;8.844;2023-04-25T01:48:54;9.15;;;4.90;;
23304;SDS011;11821;51.456;8.844;2023-04-25T01:51:21;9.48;;;4.70;;
23304;SDS011;11821;51.456;8.844;2023-04-25T01:53:48;9.93;;;5.30;;
23304;SDS011;11821;51.456;8.844;2023-04-25T01:56:15;9.40;;;4.97;;
23304;SDS011;11821;51.456;8.844;2023-04-25T01:58:41;11.85;;;5.38;;
23304;SDS011;11821;51.456;8.844;2023-04-25T02:01:20;10.85;;;4.65;;
23304;SDS011;11821;51.456;8.844;2023-04-25T02:04:01;16.45;;;5.95;;
23304;SDS011;11821;51.456;8.844;2023-04-25T02:06:33;7.97;;;4.10;;
23304;SDS011;11821;51.456;8.844;2023-04-25T02:09:00;10.20;;;4.75;;
23304;SDS011;11821;51.456;8.844;2023-04-25T02:11:27;11.70;;;5.63;;
23304;SDS011;11821;51.456;8.844;2023-04-25T02:14:11;7.30;;;4.35;;
23304;SDS011;11821;51.456;8.844;2023-04-25T02:16:54;7.43;;;3.95;;
23304;SDS011;11821;51.456;8.844;2023-04-25T02:19:20;9.85;;;4.35;;
23304;SDS011;11821;51.456;8.844;2023-04-25T02:21:47;9.57;;;4.65;;
23304;SDS011;11821;51.456;8.844;2023-04-25T02:24:13;10.63;;;4.82;;
23304;SDS011;11821;51.456;8.844;2023-04-25T02:26:40;8.32;;;4.40;;
23304;SDS011;11821;51.456;8.844;2023-04-25T02:29:08;9.57;;;4.53;;
23304;SDS011;11821;51.456;8.844;2023-04-25T02:31:35;9.35;;;5.00;;
23304;SDS011;11821;51.456;8.844;2023-04-25T02:34:02;6.25;;;4.75;;
23304;SDS011;11821;51.456;8.844;2023-04-25T02:36:29;8.50;;;5.30;;
23304;SDS011;11821;51.456;8.844;2023-04-25T02:38:57;8.70;;;4.63;;
23304;SDS011;11821;51.456;8.844;2023-04-25T02:41:24;9.80;;;4.97;;
23304;SDS011;11821;51.456;8.844;2023-04-25T02:43:50;6.22;;;5.35;;
23304;SDS011;11821;51.456;8.844;2023-04-25T02:46:17;8.85;;;5.22;;
23304;SDS011;11821;51.456;8.844;2023-04-25T02:48:46;6.85;;;5.28;;
23304;SDS011;11821;51.456;8.844;2023-04-25T02:51:12;8.48;;;5.75;;
23304;SDS011;11821;51.456;8.844;2023-04-25T02:53:39;8.60;;;6.53;;
23304;SDS011;11821;51.456;8.844;2023-04-25T02:56:06;9.32;;;5.90;;
23304;SDS011;11821;51.456;8.844;2023-04-25T02:58:33;12.73;;;5.60;;
23304;SDS011;11821;51.456;8.844;2023-04-25T03:01:00;10.00;;;6.30;;
23304;SDS011;11821;51.456;8.844;2023-04-25T03:03:26;11.95;;;7.07;;
23304;SDS011;11821;51.456;8.844;2023-04-25T03:05:53;10.23;;;7.22;;
23304;SDS011;11821;51.456;8.844;2023-04-25T03:08:27;10.43;;;7.60;;
23304;SDS011;11821;51.456;8.844;2023-04-25T03:10:59;10.05;;;5.88;;
23304;SDS011;11821;51.456;8.844;2023-04-25T03:13:26;8.85;;;6.50;;
23304;SDS011;11821;51.456;8.844;2023-04-25T03:15:55;12.27;;;6.40;;
23304;SDS011;11821;51.456;8.844;2023-04-25T03:18:22;10.70;;;6.20;;
23304;SDS011;11821;51.456;8.844;2023-04-25T03:20:48;10.98;;;6.57;;
23304;SDS011;11821;51.456;8.844;2023-04-25T03:23:15;6.53;;;5.45;;
23304;SDS011;11821;51.456;8.844;2023-04-25T03:25:42;6.70;;;5.53;;
23304;SDS011;11821;51.456;8.844;2023-04-25T03:28:08;6.50;;;5.07;;
23304;SDS011;11821;51.456;8.844;2023-04-25T03:30:35;6.65;;;4.38;;
23304;SDS011;11821;51.456;8.844;2023-04-25T03:33:02;9.75;;;5.50;;
23304;SDS011;11821;51.456;8.844;2023-04-25T03:35:29;5.57;;;5.07;;
23304;SDS011;11821;51.456;8.844;2023-04-25T03:37:55;6.45;;;5.07;;
23304;SDS011;11821;51.456;8.844;2023-04-25T03:40:27;6.50;;;4.50;;
23304;SDS011;11821;51.456;8.844;2023-04-25T03:43:12;6.47;;;4.53;;
23304;SDS011;11821;51.456;8.844;2023-04-25T03:45:45;5.13;;;4.53;;
23304;SDS011;11821;51.456;8.844;2023-04-25T03:48:12;5.63;;;4.30;;
23304;SDS011;11821;51.456;8.844;2023-04-25T03:50:38;7.38;;;5.15;;
23304;SDS011;11821;51.456;8.844;2023-04-25T03:53:05;4.82;;;4.40;;
23304;SDS011;11821;51.456;8.844;2023-04-25T03:55:51;4.95;;;4.43;;
23304;SDS011;11821;51.456;8.844;2023-04-25T03:58:18;5.00;;;3.95;;
23304;SDS011;11821;51.456;8.844;2023-04-25T04:00:45;5.35;;;4.07;;
23304;SDS011;11821;51.456;8.844;2023-04-25T04:03:11;5.78;;;3.90;;
23304;SDS011;11821;51.456;8.844;2023-04-25T04:05:38;4.00;;;3.65;;
23304;SDS011;11821;51.456;8.844;2023-04-25T04:08:06;4.47;;;3.70;;
23304;SDS011;11821;51.456;8.844;2023-04-25T04:10:34;4.55;;;3.70;;
23304;SDS011;11821;51.456;8.844;2023-04-25T04:13:01;3.83;;;3.38;;
23304;SDS011;11821;51.456;8.844;2023-04-25T04:15:27;5.32;;;3.88;;
23304;SDS011;11821;51.456;8.844;2023-04-25T04:17:54;3.00;;;2.80;;
23304;SDS011;11821;51.456;8.844;2023-04-25T04:20:21;3.83;;;2.85;;
23304;SDS011;11821;51.456;8.844;2023-04-25T04:22:48;4.22;;;3.35;;
23304;SDS011;11821;51.456;8.844;2023-04-25T04:25:16;4.00;;;2.75;;
23304;SDS011;11821;51.456;8.844;2023-04-25T04:30:51;2.78;;;2.42;;
23304;SDS011;11821;51.456;8.844;2023-04-25T04:33:18;3.38;;;2.35;;
23304;SDS011;11821;51.456;8.844;2023-04-25T04:35:47;3.95;;;2.33;;
23304;SDS011;11821;51.456;8.844;2023-04-25T04:38:15;2.67;;;2.47;;
23304;SDS011;11821;51.456;8.844;2023-04-25T04:40:41;2.63;;;2.22;;
23304;SDS011;11821;51.456;8.844;2023-04-25T04:43:23;4.65;;;2.55;;
23304;SDS011;11821;51.456;8.844;2023-04-25T04:45:53;2.95;;;2.67;;
23304;SDS011;11821;51.456;8.844;2023-04-25T04:48:41;3.75;;;3.05;;
23304;SDS011;11821;51.456;8.844;2023-04-25T04:51:32;4.70;;;3.72;;
23304;SDS011;11821;51.456;8.844;2023-04-25T04:54:15;7.00;;;4.47;;
23304;SDS011;11821;51.456;8.844;2023-04-25T04:59:55;8.05;;;4.93;;
23304;SDS011;11821;51.456;8.844;2023-04-25T05:02:56;8.70;;;5.68;;
23304;SDS011;11821;51.456;8.844;2023-04-25T05:05:42;7.75;;;4.55;;
23304;SDS011;11821;51.456;8.844;2023-04-25T05:08:33;10.43;;;5.22;;
23304;SDS011;11821;51.456;8.844;2023-04-25T05:11:31;12.05;;;4.70;;
23304;SDS011;11821;51.456;8.844;2023-04-25T05:14:08;9.02;;;4.35;;
23304;SDS011;11821;51.456;8.844;2023-04-25T05:16:35;7.43;;;4.85;;
23304;SDS011;11821;51.456;8.844;2023-04-25T05:19:20;17.05;;;5.80;;
23304;SDS011;11821;51.456;8.844;2023-04-25T05:22:01;12.20;;;5.05;;
23304;SDS011;11821;51.456;8.844;2023-04-25T05:24:37;13.73;;;5.10;;
23304;SDS011;11821;51.456;8.844;2023-04-25T05:27:17;15.50;;;5.13;;
23304;SDS011;11821;51.456;8.844;2023-04-25T05:29:58;11.15;;;5.53;;
23304;SDS011;11821;51.456;8.844;2023-04-25T05:32:33;15.18;;;5.60;;
23304;SDS011;11821;51.456;8.844;2023-04-25T05:35:00;15.18;;;6.15;;
23304;SDS011;11821;51.456;8.844;2023-04-25T05:37:31;11.52;;;5.50;;
23304;SDS011;11821;51.456;8.844;2023-04-25T05:40:18;11.93;;;6.00;;
23304;SDS011;11821;51.456;8.844;2023-04-25T05:43:03;14.80;;;6.90;;
23304;SDS011;11821;51.456;8.844;2023-04-25T05:45:56;12.63;;;6.10;;
23304;SDS011;11821;51.456;8.844;2023-04-25T05:48:31;17.00;;;6.35;;
23304;SDS011;11821;51.456;8.844;2023-04-25T05:51:09;15.05;;;6.35;;
23304;SDS011;11821;51.456;8.844;2023-04-25T05:53:38;16.15;;;5.90;;
23304;SDS011;11821;51.456;8.844;2023-04-25T05:56:05;11.45;;;6.45;;
23304;SDS011;11821;51.456;8.844;2023-04-25T05:58:32;18.27;;;6.47;;
23304;SDS011;11821;51.456;8.844;2023-04-25T06:00:59;22.02;;;7.03;;
23304;SDS011;11821;51.456;8.844;2023-04-25T06:03:26;13.75;;;6.20;;
23304;SDS011;11821;51.456;8.844;2023-04-25T06:05:52;15.88;;;5.38;;
23304;SDS011;11821;51.456;8.844;2023-04-25T06:08:19;18.98;;;6.95;;
23304;SDS011;11821;51.456;8.844;2023-04-25T06:10:46;9.65;;;5.60;;
23304;SDS011;11821;51.456;8.844;2023-04-25T06:13:13;26.50;;;6.55;;
23304;SDS011;11821;51.456;8.844;2023-04-25T06:15:41;20.15;;;6.15;;
23304;SDS011;11821;51.456;8.844;2023-04-25T06:18:08;15.18;;;5.47;;
23304;SDS011;11821;51.456;8.844;2023-04-25T06:20:35;19.00;;;6.45;;
23304;SDS011;11821;51.456;8.844;2023-04-25T06:23:01;16.80;;;5.75;;
23304;SDS011;11821;51.456;8.844;2023-04-25T06:25:51;16.92;;;6.13;;
23304;SDS011;11821;51.456;8.844;2023-04-25T06:28:18;24.17;;;6.07;;
23304;SDS011;11821;51.456;8.844;2023-04-25T06:30:47;19.70;;;6.45;;
23304;SDS011;11821;51.456;8.844;2023-04-25T06:33:17;22.65;;;6.60;;
23304;SDS011;11821;51.456;8.844;2023-04-25T06:35:44;16.52;;;5.97;;
23304;SDS011;11821;51.456;8.844;2023-04-25T06:38:13;13.40;;;5.82;;
23304;SDS011;11821;51.456;8.844;2023-04-25T06:40:44;22.05;;;6.50;;
23304;SDS011;11821;51.456;8.844;2023-04-25T06:43:11;17.95;;;6.50;;
23304;SDS011;11821;51.456;8.844;2023-04-25T06:45:59;14.80;;;5.15;;
23304;SDS011;11821;51.456;8.844;2023-04-25T06:48:28;16.38;;;5.95;;
23304;SDS011;11821;51.456;8.844;2023-04-25T06:50:55;25.70;;;6.93;;
23304;SDS011;11821;51.456;8.844;2023-04-25T06:53:23;17.80;;;7.47;;
23304;SDS011;11821;51.456;8.844;2023-04-25T06:55:56;15.15;;;6.60;;
23304;SDS011;11821;51.456;8.844;2023-04-25T06:58:25;18.27;;;6.07;;
23304;SDS011;11821;51.456;8.844;2023-04-25T07:00:51;16.10;;;5.05;;
23304;SDS011;11821;51.456;8.844;2023-04-25T07:03:21;15.80;;;5.30;;
23304;SDS011;11821;51.456;8.844;2023-04-25T07:05:48;15.07;;;5.20;;
23304;SDS011;11821;51.456;8.844;2023-04-25T07:08:15;15.02;;;5.07;;
23304;SDS011;11821;51.456;8.844;2023-04-25T07:10:42;19.95;;;5.20;;
23304;SDS011;11821;51.456;8.844;2023-04-25T07:13:09;13.07;;;4.63;;
23304;SDS011;11821;51.456;8.844;2023-04-25T07:15:36;14.00;;;4.97;;
23304;SDS011;11821;51.456;8.844;2023-04-25T07:18:03;13.73;;;4.57;;
23304;SDS011;11821;51.456;8.844;2023-04-25T07:20:30;11.25;;;4.80;;
23304;SDS011;11821;51.456;8.844;2023-04-25T07:22:58;12.98;;;4.60;;
23304;SDS011;11821;51.456;8.844;2023-04-25T07:25:25;18.58;;;5.13;;
23304;SDS011;11821;51.456;8.844;2023-04-25T07:27:52;13.68;;;4.65;;
23304;SDS011;11821;51.456;8.844;2023-04-25T07:30:20;16.75;;;4.40;;
23304;SDS011;11821;51.456;8.844;2023-04-25T07:32:47;11.70;;;5.10;;
23304;SDS011;11821;51.456;8.844;2023-04-25T07:35:14;16.55;;;4.78;;
23304;SDS011;11821;51.456;8.844;2023-04-25T07:37:41;14.27;;;4.60;;
23304;SDS011;11821;51.456;8.844;2023-04-25T07:40:11;10.13;;;4.28;;
23304;SDS011;11821;51.456;8.844;2023-04-25T07:45:11;12.63;;;4.35;;
23304;SDS011;11821;51.456;8.844;2023-04-25T07:47:39;14.05;;;4.20;;
23304;SDS011;11821;51.456;8.844;2023-04-25T07:50:07;16.23;;;4.45;;
23304;SDS011;11821;51.456;8.844;2023-04-25T07:52:34;17.67;;;4.03;;
23304;SDS011;11821;51.456;8.844;2023-04-25T07:55:13;15.40;;;4.28;;
23304;SDS011;11821;51.456;8.844;2023-04-25T07:58:00;8.57;;;3.22;;
23304;SDS011;11821;51.456;8.844;2023-04-25T08:00:29;13.07;;;3.60;;
23304;SDS011;11821;51.456;8.844;2023-04-25T08:03:15;14.32;;;3.50;;
23304;SDS011;11821;51.456;8.844;2023-04-25T08:05:42;8.43;;;3.20;;
23304;SDS011;11821;51.456;8.844;2023-04-25T08:08:09;14.50;;;3.95;;
23304;SDS011;11821;51.456;8.844;2023-04-25T08:10:36;11.75;;;3.53;;
23304;SDS011;11821;51.456;8.844;2023-04-25T08:13:03;10.40;;;3.03;;
23304;SDS011;11821;51.456;8.844;2023-04-25T08:15:30;12.23;;;4.07;;
23304;SDS011;11821;51.456;8.844;2023-04-25T08:17:56;11.73;;;3.75;;
23304;SDS011;11821;51.456;8.844;2023-04-25T08:20:23;10.02;;;3.35;;
23304;SDS011;11821;51.456;8.844;2023-04-25T08:22:53;12.98;;;3.40;;
23304;SDS011;11821;51.456;8.844;2023-04-25T08:25:40;12.77;;;3.42;;
23304;SDS011;11821;51.456;8.844;2023-04-25T08:28:08;11.75;;;3.80;;
23304;SDS011;11821;51.456;8.844;2023-04-25T08:30:36;16.73;;;4.07;;
23304;SDS011;11821;51.456;8.844;2023-04-25T08:33:04;10.38;;;3.60;;
23304;SDS011;11821;51.456;8.844;2023-04-25T08:35:51;14.15;;;4.65;;
23304;SDS011;11821;51.456;8.844;2023-04-25T08:38:18;7.70;;;3.88;;
23304;SDS011;11821;51.456;8.844;2023-04-25T08:40:45;13.45;;;4.05;;
23304;SDS011;11821;51.456;8.844;2023-04-25T08:43:18;11.93;;;4.05;;
23304;SDS011;11821;51.456;8.844;2023-04-25T08:45:45;10.45;;;2.90;;
23304;SDS011;11821;51.456;8.844;2023-04-25T08:48:32;11.10;;;3.63;;
23304;SDS011;11821;51.456;8.844;2023-04-25T08:51:01;12.30;;;3.38;;
23304;SDS011;11821;51.456;8.844;2023-04-25T08:53:30;12.23;;;2.85;;
23304;SDS011;11821;51.456;8.844;2023-04-25T08:56:00;14.80;;;3.50;;
23304;SDS011;11821;51.456;8.844;2023-04-25T08:58:34;10.20;;;3.47;;
23304;SDS011;11821;51.456;8.844;2023-04-25T09:01:02;8.65;;;2.78;;
23304;SDS011;11821;51.456;8.844;2023-04-25T09:03:35;11.18;;;3.53;;
23304;SDS011;11821;51.456;8.844;2023-04-25T09:06:02;10.48;;;3.40;;
23304;SDS011;11821;51.456;8.844;2023-04-25T09:08:29;8.13;;;2.88;;
23304;SDS011;11821;51.456;8.844;2023-04-25T09:10:56;11.75;;;3.42;;
23304;SDS011;11821;51.456;8.844;2023-04-25T09:13:26;8.55;;;3.60;;
23304;SDS011;11821;51.456;8.844;2023-04-25T09:16:18;9.43;;;2.90;;
23304;SDS011;11821;51.456;8.844;2023-04-25T09:18:59;10.88;;;4.20;;
23304;SDS011;11821;51.456;8.844;2023-04-25T09:21:27;11.90;;;2.97;;
23304;SDS011;11821;51.456;8.844;2023-04-25T09:23:53;8.27;;;2.45;;
23304;SDS011;11821;51.456;8.844;2023-04-25T09:26:20;6.97;;;2.30;;
23304;SDS011;11821;51.456;8.844;2023-04-25T09:28:48;10.43;;;2.70;;
23304;SDS011;11821;51.456;8.844;2023-04-25T09:31:21;7.90;;;2.33;;
23304;SDS011;11821;51.456;8.844;2023-04-25T09:33:59;6.10;;;1.70;;
23304;SDS011;11821;51.456;8.844;2023-04-25T09:36:36;5.22;;;2.10;;
23304;SDS011;11821;51.456;8.844;2023-04-25T09:39:23;6.22;;;2.15;;
23304;SDS011;11821;51.456;8.844;2023-04-25T09:42:02;6.00;;;2.22;;
23304;SDS011;11821;51.456;8.844;2023-04-25T09:44:30;11.93;;;2.78;;
23304;SDS011;11821;51.456;8.844;2023-04-25T09:46:57;8.25;;;2.15;;
23304;SDS011;11821;51.456;8.844;2023-04-25T09:49:27;5.97;;;1.98;;
23304;SDS011;11821;51.456;8.844;2023-04-25T09:52:15;6.40;;;2.40;;
23304;SDS011;11821;51.456;8.844;2023-04-25T09:54:52;9.07;;;2.20;;
23304;SDS011;11821;51.456;8.844;2023-04-25T09:57:26;7.57;;;2.58;;
23304;SDS011;11821;51.456;8.844;2023-04-25T09:59:55;10.10;;;3.03;;
23304;SDS011;11821;51.456;8.844;2023-04-25T10:02:26;12.38;;;2.90;;
23304;SDS011;11821;51.456;8.844;2023-04-25T10:04:58;6.78;;;2.22;;
23304;SDS011;11821;51.456;8.844;2023-04-25T10:07:29;6.82;;;2.05;;
23304;SDS011;11821;51.456;8.844;2023-04-25T10:10:00;9.65;;;2.05;;
23304;SDS011;11821;51.456;8.844;2023-04-25T10:12:28;7.32;;;2.38;;
23304;SDS011;11821;51.456;8.844;2023-04-25T10:14:57;6.95;;;2.47;;
23304;SDS011;11821;51.456;8.844;2023-04-25T10:17:24;6.47;;;2.20;;
23304;SDS011;11821;51.456;8.844;2023-04-25T10:19:53;8.30;;;2.17;;
23304;SDS011;11821;51.456;8.844;2023-04-25T10:22:23;7.60;;;2.45;;
23304;SDS011;11821;51.456;8.844;2023-04-25T10:24:52;4.90;;;1.85;;
23304;SDS011;11821;51.456;8.844;2023-04-25T10:27:19;7.90;;;2.33;;
23304;SDS011;11821;51.456;8.844;2023-04-25T10:29:46;6.00;;;2.30;;
23304;SDS011;11821;51.456;8.844;2023-04-25T10:32:26;9.80;;;2.25;;
23304;SDS011;11821;51.456;8.844;2023-04-25T10:34:53;5.65;;;2.17;;
23304;SDS011;11821;51.456;8.844;2023-04-25T10:37:20;5.45;;;1.90;;
23304;SDS011;11821;51.456;8.844;2023-04-25T10:39:46;5.78;;;1.80;;
23304;SDS011;11821;51.456;8.844;2023-04-25T10:42:13;5.20;;;1.83;;
23304;SDS011;11821;51.456;8.844;2023-04-25T10:44:39;3.95;;;1.92;;
23304;SDS011;11821;51.456;8.844;2023-04-25T10:47:06;5.50;;;1.90;;
23304;SDS011;11821;51.456;8.844;2023-04-25T10:49:36;9.25;;;2.15;;
23304;SDS011;11821;51.456;8.844;2023-04-25T10:57:25;6.50;;;2.00;;
23304;SDS011;11821;51.456;8.844;2023-04-25T10:59:54;7.68;;;2.17;;
23304;SDS011;11821;51.456;8.844;2023-04-25T11:02:21;5.63;;;2.00;;
23304;SDS011;11821;51.456;8.844;2023-04-25T11:04:53;7.85;;;2.05;;
23304;SDS011;11821;51.456;8.844;2023-04-25T11:07:23;7.82;;;2.58;;
23304;SDS011;11821;51.456;8.844;2023-04-25T11:09:52;5.20;;;1.90;;
23304;SDS011;11821;51.456;8.844;2023-04-25T11:12:19;6.72;;;1.77;;
23304;SDS011;11821;51.456;8.844;2023-04-25T11:14:45;5.97;;;1.67;;
23304;SDS011;11821;51.456;8.844;2023-04-25T11:17:12;4.85;;;1.65;;
23304;SDS011;11821;51.456;8.844;2023-04-25T11:19:38;6.95;;;1.48;;
23304;SDS011;11821;51.456;8.844;2023-04-25T11:22:05;9.45;;;1.88;;
23304;SDS011;11821;51.456;8.844;2023-04-25T11:24:33;7.28;;;1.80;;
23304;SDS011;11821;51.456;8.844;2023-04-25T11:27:00;5.72;;;1.75;;
23304;SDS011;11821;51.456;8.844;2023-04-25T11:29:28;6.07;;;1.70;;
23304;SDS011;11821;51.456;8.844;2023-04-25T11:31:55;4.97;;;1.80;;
23304;SDS011;11821;51.456;8.844;2023-04-25T11:34:26;5.28;;;2.05;;
23304;SDS011;11821;51.456;8.844;2023-04-25T11:36:56;5.07;;;1.85;;
23304;SDS011;11821;51.456;8.844;2023-04-25T11:39:26;5.32;;;1.60;;
23304;SDS011;11821;51.456;8.844;2023-04-25T11:41:53;7.30;;;2.00;;
23304;SDS011;11821;51.456;8.844;2023-04-25T11:44:20;5.30;;;1.65;;
23304;SDS011;11821;51.456;8.844;2023-04-25T11:46:47;5.43;;;1.67;;
23304;SDS011;11821;51.456;8.844;2023-04-25T11:49:13;4.00;;;1.60;;
23304;SDS011;11821;51.456;8.844;2023-04-25T11:54:07;6.30;;;2.20;;
23304;SDS011;11821;51.456;8.844;2023-04-25T11:56:33;3.50;;;1.40;;
23304;SDS011;11821;51.456;8.844;2023-04-25T11:59:00;6.63;;;1.50;;
23304;SDS011;11821;51.456;8.844;2023-04-25T12:01:29;4.30;;;1.80;;
23304;SDS011;11821;51.456;8.844;2023-04-25T12:03:56;5.50;;;1.55;;
23304;SDS011;11821;51.456;8.844;2023-04-25T12:06:29;7.13;;;1.70;;
23304;SDS011;11821;51.456;8.844;2023-04-25T12:09:02;5.72;;;1.75;;
23304;SDS011;11821;51.456;8.844;2023-04-25T12:11:32;3.97;;;1.38;;
23304;SDS011;11821;51.456;8.844;2023-04-25T12:14:06;7.13;;;1.80;;
23304;SDS011;11821;51.456;8.844;2023-04-25T12:19:08;5.03;;;1.50;;
23304;SDS011;11821;51.456;8.844;2023-04-25T12:21:35;3.67;;;1.67;;
23304;SDS011;11821;51.456;8.844;2023-04-25T12:29:18;8.25;;;1.85;;
23304;SDS011;11821;51.456;8.844;2023-04-25T12:31:49;3.88;;;1.40;;
23304;SDS011;11821;51.456;8.844;2023-04-25T12:34:17;5.22;;;1.70;;
23304;SDS011;11821;51.456;8.844;2023-04-25T12:36:44;5.82;;;1.40;;
23304;SDS011;11821;51.456;8.844;2023-04-25T12:39:17;3.97;;;1.40;;
23304;SDS011;11821;51.456;8.844;2023-04-25T12:41:45;4.15;;;1.60;;
23304;SDS011;11821;51.456;8.844;2023-04-25T12:44:12;5.82;;;1.70;;
23304;SDS011;11821;51.456;8.844;2023-04-25T12:46:39;6.05;;;1.50;;
23304;SDS011;11821;51.456;8.844;2023-04-25T12:49:06;6.72;;;1.77;;
23304;SDS011;11821;51.456;8.844;2023-04-25T12:51:34;6.15;;;1.77;;
23304;SDS011;11821;51.456;8.844;2023-04-25T12:54:01;4.85;;;1.73;;
23304;SDS011;11821;51.456;8.844;2023-04-25T12:56:29;3.75;;;1.48;;
23304;SDS011;11821;51.456;8.844;2023-04-25T12:58:55;6.43;;;1.50;;
23304;SDS011;11821;51.456;8.844;2023-04-25T13:01:22;5.28;;;1.90;;
23304;SDS011;11821;51.456;8.844;2023-04-25T13:03:49;6.15;;;1.58;;
23304;SDS011;11821;51.456;8.844;2023-04-25T13:06:16;2.63;;;1.13;;
23304;SDS011;11821;51.456;8.844;2023-04-25T13:08:44;4.40;;;1.55;;
23304;SDS011;11821;51.456;8.844;2023-04-25T13:11:11;4.32;;;1.85;;
23304;SDS011;11821;51.456;8.844;2023-04-25T13:13:37;3.95;;;1.25;;
23304;SDS011;11821;51.456;8.844;2023-04-25T13:16:05;2.00;;;1.15;;
23304;SDS011;11821;51.456;8.844;2023-04-25T13:18:32;5.35;;;1.40;;
23304;SDS011;11821;51.456;8.844;2023-04-25T13:20:59;6.45;;;1.40;;
23304;SDS011;11821;51.456;8.844;2023-04-25T13:23:26;1.48;;;1.05;;
23304;SDS011;11821;51.456;8.844;2023-04-25T13:25:54;1.73;;;0.95;;
23304;SDS011;11821;51.456;8.844;2023-04-25T13:28:21;5.65;;;1.90;;
23304;SDS011;11821;51.456;8.844;2023-04-25T13:30:47;10.07;;;5.65;;
23304;SDS011;11821;51.456;8.844;2023-04-25T13:33:14;3.45;;;1.48;;
23304;SDS011;11821;51.456;8.844;2023-04-25T13:35:41;5.50;;;2.25;;
23304;SDS011;11821;51.456;8.844;2023-04-25T13:38:08;4.88;;;2.30;;
23304;SDS011;11821;51.456;8.844;2023-04-25T13:40:34;4.43;;;1.40;;
23304;SDS011;11821;51.456;8.844;2023-04-25T13:43:01;4.00;;;1.15;;
23304;SDS011;11821;51.456;8.844;2023-04-25T13:45:27;3.80;;;1.27;;
23304;SDS011;11821;51.456;8.844;2023-04-25T13:47:53;3.97;;;1.30;;
23304;SDS011;11821;51.456;8.844;2023-04-25T13:50:20;5.63;;;1.30;;
23304;SDS011;11821;51.456;8.844;2023-04-25T13:52:46;2.75;;;1.27;;
23304;SDS011;11821;51.456;8.844;2023-04-25T13:55:13;3.72;;;1.25;;
23304;SDS011;11821;51.456;8.844;2023-04-25T13:57:39;3.67;;;1.30;;
23304;SDS011;11821;51.456;8.844;2023-04-25T14:00:05;5.85;;;1.45;;
23304;SDS011;11821;51.456;8.844;2023-04-25T14:02:34;3.63;;;1.65;;
23304;SDS011;11821;51.456;8.844;2023-04-25T14:05:01;3.08;;;1.60;;
23304;SDS011;11821;51.456;8.844;2023-04-25T14:07:28;5.75;;;1.60;;
23304;SDS011;11821;51.456;8.844;2023-04-25T14:09:55;4.30;;;1.83;;
23304;SDS011;11821;51.456;8.844;2023-04-25T14:12:23;4.40;;;2.05;;
23304;SDS011;11821;51.456;8.844;2023-04-25T14:14:49;3.65;;;2.00;;
23304;SDS011;11821;51.456;8.844;2023-04-25T14:17:16;7.88;;;1.60;;
23304;SDS011;11821;51.456;8.844;2023-04-25T14:19:42;4.28;;;1.80;;
23304;SDS011;11821;51.456;8.844;2023-04-25T14:22:11;3.92;;;1.50;;
23304;SDS011;11821;51.456;8.844;2023-04-25T14:24:37;4.65;;;1.85;;
23304;SDS011;11821;51.456;8.844;2023-04-25T14:27:04;3.78;;;1.75;;
23304;SDS011;11821;51.456;8.844;2023-04-25T14:29:30;3.05;;;1.63;;
23304;SDS011;11821;51.456;8.844;2023-04-25T14:31:57;5.70;;;2.42;;
23304;SDS011;11821;51.456;8.844;2023-04-25T14:34:24;4.38;;;2.05;;
23304;SDS011;11821;51.456;8.844;2023-04-25T14:36:51;3.97;;;1.27;;
23304;SDS011;11821;51.456;8.844;2023-04-25T14:39:18;5.35;;;1.90;;
23304;SDS011;11821;51.456;8.844;2023-04-25T14:41:44;3.35;;;1.33;;
23304;SDS011;11821;51.456;8.844;2023-04-25T14:44:11;2.67;;;1.45;;
23304;SDS011;11821;51.456;8.844;2023-04-25T14:46:37;2.28;;;1.08;;
23304;SDS011;11821;51.456;8.844;2023-04-25T14:49:04;4.22;;;1.85;;
23304;SDS011;11821;51.456;8.844;2023-04-25T14:51:31;2.80;;;1.25;;
23304;SDS011;11821;51.456;8.844;2023-04-25T14:53:57;3.35;;;1.20;;
23304;SDS011;11821;51.456;8.844;2023-04-25T14:56:24;4.13;;;1.67;;
23304;SDS011;11821;51.456;8.844;2023-04-25T14:58:50;4.35;;;1.33;;
23304;SDS011;11821;51.456;8.844;2023-04-25T15:01:17;3.97;;;1.60;;
23304;SDS011;11821;51.456;8.844;2023-04-25T15:03:45;2.60;;;1.00;;
23304;SDS011;11821;51.456;8.844;2023-04-25T15:06:12;2.13;;;1.10;;
23304;SDS011;11821;51.456;8.844;2023-04-25T15:08:39;4.63;;;1.38;;
23304;SDS011;11821;51.456;8.844;2023-04-25T15:11:06;2.67;;;1.10;;
23304;SDS011;11821;51.456;8.844;2023-04-25T15:13:32;4.22;;;1.10;;
23304;SDS011;11821;51.456;8.844;2023-04-25T15:16:00;2.85;;;1.15;;
23304;SDS011;11821;51.456;8.844;2023-04-25T15:18:26;3.65;;;1.25;;
23304;SDS011;11821;51.456;8.844;2023-04-25T15:20:53;3.10;;;0.88;;